sensor_id;sensor_type;location;lat;lon;timestamp;P1;durP1;ratioP1;P2;durP2;ratioP2
44456;SDS011;30159;49.316;8.558;2023-04-24T00:01:01;0.90;;;0.83;;
44456;SDS011;30159;49.316;8.558;2023-04-24T00:03:27;2.60;;;0.70;;
44456;SDS011;30159;49.316;8.558;2023-04-24T00:05:54;1.00;;;0.90;;
44456;SDS011;30159;49.316;8.558;2023-04-24T00:08:21;0.97;;;0.80;;
44456;SDS011;30159;49.316;8.558;2023-04-24T00:10:50;1.00;;;0.90;;
44456;SDS011;30159;49.316;8.558;2023-04-24T00:13:17;1.40;;;1.00;;
44456;SDS011;30159;49.316;8.558;2023-04-24T00:15:44;0.80;;;0.70;;
44456;SDS011;30159;49.316;8.558;2023-04-24T00:18:10;0.90;;;0.70;;
44456;SDS011;30159;49.316;8.558;2023-04-24T00:20:37;2.93;;;0.77;;
44456;SDS011;30159;49.316;8.558;2023-04-24T00:23:04;1.53;;;0.70;;
44456;SDS011;30159;49.316;8.558;2023-04-24T00:25:31;2.40;;;0.80;;
44456;SDS011;30159;49.316;8.558;2023-04-24T00:27:59;0.90;;;0.70;;
44456;SDS011;30159;49.316;8.558;2023-04-24T00:30:25;1.10;;;0.73;;
44456;SDS011;30159;49.316;8.558;2023-04-24T00:32:52;1.10;;;0.90;;
44456;SDS011;30159;49.316;8.558;2023-04-24T00:35:18;1.00;;;0.80;;
44456;SDS011;30159;49.316;8.558;2023-04-24T00:37:45;1.00;;;0.90;;
44456;SDS011;30159;49.316;8.558;2023-04-24T00:40:12;1.00;;;0.90;;
44456;SDS011;30159;49.316;8.558;2023-04-24T00:42:39;1.13;;;0.80;;
44456;SDS011;30159;49.316;8.558;2023-04-24T00:45:08;2.67;;;0.80;;
44456;SDS011;30159;49.316;8.558;2023-04-24T00:47:35;1.83;;;0.90;;
44456;SDS011;30159;49.316;8.558;2023-04-24T00:50:02;2.00;;;0.80;;
44456;SDS011;30159;49.316;8.558;2023-04-24T00:52:29;0.87;;;0.80;;
44456;SDS011;30159;49.316;8.558;2023-04-24T00:54:57;2.13;;;1.10;;
44456;SDS011;30159;49.316;8.558;2023-04-24T00:57:24;0.90;;;0.80;;
44456;SDS011;30159;49.316;8.558;2023-04-24T00:59:52;1.07;;;0.97;;
44456;SDS011;30159;49.316;8.558;2023-04-24T01:02:21;1.00;;;0.90;;
44456;SDS011;30159;49.316;8.558;2023-04-24T01:04:50;0.90;;;0.80;;
44456;SDS011;30159;49.316;8.558;2023-04-24T01:07:17;1.30;;;0.80;;
44456;SDS011;30159;49.316;8.558;2023-04-24T01:09:46;1.17;;;1.07;;
44456;SDS011;30159;49.316;8.558;2023-04-24T01:12:15;0.90;;;0.70;;
44456;SDS011;30159;49.316;8.558;2023-04-24T01:14:42;1.43;;;0.90;;
44456;SDS011;30159;49.316;8.558;2023-04-24T01:17:09;1.20;;;1.10;;
44456;SDS011;30159;49.316;8.558;2023-04-24T01:19:37;0.83;;;0.77;;
44456;SDS011;30159;49.316;8.558;2023-04-24T01:22:09;0.80;;;0.70;;
44456;SDS011;30159;49.316;8.558;2023-04-24T01:24:36;1.10;;;0.90;;
44456;SDS011;30159;49.316;8.558;2023-04-24T01:27:03;0.87;;;0.73;;
44456;SDS011;30159;49.316;8.558;2023-04-24T01:29:30;0.97;;;0.83;;
44456;SDS011;30159;49.316;8.558;2023-04-24T01:31:56;0.93;;;0.83;;
44456;SDS011;30159;49.316;8.558;2023-04-24T01:34:23;0.80;;;0.80;;
44456;SDS011;30159;49.316;8.558;2023-04-24T01:36:50;1.10;;;1.00;;
44456;SDS011;30159;49.316;8.558;2023-04-24T01:39:18;0.90;;;0.80;;
44456;SDS011;30159;49.316;8.558;2023-04-24T01:41:45;0.80;;;0.80;;
44456;SDS011;30159;49.316;8.558;2023-04-24T01:44:12;0.80;;;0.80;;
44456;SDS011;30159;49.316;8.558;2023-04-24T01:46:38;1.00;;;0.90;;
44456;SDS011;30159;49.316;8.558;2023-04-24T01:49:05;0.90;;;0.80;;
44456;SDS011;30159;49.316;8.558;2023-04-24T01:51:32;1.03;;;0.93;;
44456;SDS011;30159;49.316;8.558;2023-04-24T01:53:58;0.80;;;0.73;;
44456;SDS011;30159;49.316;8.558;2023-04-24T01:56:26;0.90;;;0.80;;
44456;SDS011;30159;49.316;8.558;2023-04-24T01:58:55;1.10;;;0.77;;
44456;SDS011;30159;49.316;8.558;2023-04-24T02:01:23;1.00;;;0.90;;
44456;SDS011;30159;49.316;8.558;2023-04-24T02:03:50;0.90;;;0.80;;
44456;SDS011;30159;49.316;8.558;2023-04-24T02:06:17;2.50;;;1.00;;
44456;SDS011;30159;49.316;8.558;2023-04-24T02:08:43;1.30;;;0.97;;
44456;SDS011;30159;49.316;8.558;2023-04-24T02:11:10;0.93;;;0.87;;
44456;SDS011;30159;49.316;8.558;2023-04-24T02:13:38;2.83;;;1.10;;
44456;SDS011;30159;49.316;8.558;2023-04-24T02:16:04;1.00;;;0.90;;
44456;SDS011;30159;49.316;8.558;2023-04-24T02:18:31;0.90;;;0.80;;
44456;SDS011;30159;49.316;8.558;2023-04-24T02:20:57;7.63;;;0.93;;
44456;SDS011;30159;49.316;8.558;2023-04-24T02:23:24;1.00;;;0.90;;
44456;SDS011;30159;49.316;8.558;2023-04-24T02:25:52;0.90;;;0.80;;
44456;SDS011;30159;49.316;8.558;2023-04-24T02:28:19;1.07;;;0.93;;
44456;SDS011;30159;49.316;8.558;2023-04-24T02:30:47;1.00;;;0.90;;
44456;SDS011;30159;49.316;8.558;2023-04-24T02:33:13;1.20;;;0.93;;
44456;SDS011;30159;49.316;8.558;2023-04-24T02:35:40;2.10;;;0.90;;
44456;SDS011;30159;49.316;8.558;2023-04-24T02:38:06;1.60;;;0.90;;
44456;SDS011;30159;49.316;8.558;2023-04-24T02:40:33;1.43;;;1.17;;
44456;SDS011;30159;49.316;8.558;2023-04-24T02:42:59;0.83;;;0.77;;
44456;SDS011;30159;49.316;8.558;2023-04-24T02:45:26;2.60;;;0.90;;
44456;SDS011;30159;49.316;8.558;2023-04-24T02:47:54;1.20;;;1.00;;
44456;SDS011;30159;49.316;8.558;2023-04-24T02:50:20;1.00;;;0.90;;
44456;SDS011;30159;49.316;8.558;2023-04-24T02:52:47;1.60;;;1.00;;
44456;SDS011;30159;49.316;8.558;2023-04-24T02:55:13;1.10;;;0.90;;
44456;SDS011;30159;49.316;8.558;2023-04-24T02:57:40;1.00;;;0.90;;
44456;SDS011;30159;49.316;8.558;2023-04-24T03:00:07;1.00;;;0.80;;
44456;SDS011;30159;49.316;8.558;2023-04-24T03:02:34;2.13;;;1.17;;
44456;SDS011;30159;49.316;8.558;2023-04-24T03:05:02;1.20;;;1.10;;
44456;SDS011;30159;49.316;8.558;2023-04-24T03:07:29;0.93;;;0.80;;
44456;SDS011;30159;49.316;8.558;2023-04-24T03:09:56;1.13;;;1.03;;
44456;SDS011;30159;49.316;8.558;2023-04-24T03:12:23;1.37;;;1.27;;
44456;SDS011;30159;49.316;8.558;2023-04-24T03:14:50;1.30;;;1.20;;
44456;SDS011;30159;49.316;8.558;2023-04-24T03:17:16;1.63;;;1.53;;
44456;SDS011;30159;49.316;8.558;2023-04-24T03:19:42;1.33;;;1.23;;
44456;SDS011;30159;49.316;8.558;2023-04-24T03:22:10;1.50;;;1.40;;
44456;SDS011;30159;49.316;8.558;2023-04-24T03:24:37;1.37;;;1.27;;
44456;SDS011;30159;49.316;8.558;2023-04-24T03:27:04;1.40;;;1.20;;
44456;SDS011;30159;49.316;8.558;2023-04-24T03:29:30;2.10;;;1.27;;
44456;SDS011;30159;49.316;8.558;2023-04-24T03:31:57;1.37;;;1.20;;
44456;SDS011;30159;49.316;8.558;2023-04-24T03:34:23;1.60;;;1.50;;
44456;SDS011;30159;49.316;8.558;2023-04-24T03:36:50;1.63;;;1.20;;
44456;SDS011;30159;49.316;8.558;2023-04-24T03:39:19;3.90;;;1.30;;
44456;SDS011;30159;49.316;8.558;2023-04-24T03:41:45;1.20;;;1.10;;
44456;SDS011;30159;49.316;8.558;2023-04-24T03:44:12;1.30;;;1.20;;
44456;SDS011;30159;49.316;8.558;2023-04-24T03:46:38;1.40;;;1.30;;
44456;SDS011;30159;49.316;8.558;2023-04-24T03:49:05;2.03;;;1.50;;
44456;SDS011;30159;49.316;8.558;2023-04-24T03:51:31;1.40;;;1.30;;
44456;SDS011;30159;49.316;8.558;2023-04-24T03:53:58;1.60;;;1.50;;
44456;SDS011;30159;49.316;8.558;2023-04-24T03:56:25;1.40;;;1.30;;
44456;SDS011;30159;49.316;8.558;2023-04-24T03:58:52;1.30;;;1.17;;
44456;SDS011;30159;49.316;8.558;2023-04-24T04:01:19;2.27;;;1.90;;
44456;SDS011;30159;49.316;8.558;2023-04-24T04:03:46;1.50;;;1.40;;
44456;SDS011;30159;49.316;8.558;2023-04-24T04:06:12;1.77;;;1.63;;
44456;SDS011;30159;49.316;8.558;2023-04-24T04:08:39;2.30;;;2.10;;
44456;SDS011;30159;49.316;8.558;2023-04-24T04:11:05;1.83;;;1.73;;
44456;SDS011;30159;49.316;8.558;2023-04-24T04:13:33;1.80;;;1.70;;
44456;SDS011;30159;49.316;8.558;2023-04-24T04:16:00;1.53;;;1.43;;
44456;SDS011;30159;49.316;8.558;2023-04-24T04:18:26;1.70;;;1.60;;
44456;SDS011;30159;49.316;8.558;2023-04-24T04:20:53;2.03;;;1.80;;
44456;SDS011;30159;49.316;8.558;2023-04-24T04:23:19;2.27;;;1.73;;
44456;SDS011;30159;49.316;8.558;2023-04-24T04:25:46;1.50;;;1.40;;
44456;SDS011;30159;49.316;8.558;2023-04-24T04:28:12;3.93;;;1.63;;
44456;SDS011;30159;49.316;8.558;2023-04-24T04:30:41;1.73;;;1.60;;
44456;SDS011;30159;49.316;8.558;2023-04-24T04:33:08;1.93;;;1.70;;
44456;SDS011;30159;49.316;8.558;2023-04-24T04:35:35;2.33;;;2.13;;
44456;SDS011;30159;49.316;8.558;2023-04-24T04:38:02;2.17;;;1.97;;
44456;SDS011;30159;49.316;8.558;2023-04-24T04:40:29;1.90;;;1.80;;
44456;SDS011;30159;49.316;8.558;2023-04-24T04:42:56;2.53;;;1.63;;
44456;SDS011;30159;49.316;8.558;2023-04-24T04:45:23;2.00;;;1.50;;
44456;SDS011;30159;49.316;8.558;2023-04-24T04:47:53;1.80;;;1.70;;
44456;SDS011;30159;49.316;8.558;2023-04-24T04:50:20;2.70;;;2.10;;
44456;SDS011;30159;49.316;8.558;2023-04-24T04:52:47;1.60;;;1.50;;
44456;SDS011;30159;49.316;8.558;2023-04-24T04:55:14;2.00;;;1.80;;
44456;SDS011;30159;49.316;8.558;2023-04-24T04:57:41;2.90;;;2.67;;
44456;SDS011;30159;49.316;8.558;2023-04-24T05:00:08;3.27;;;2.70;;
44456;SDS011;30159;49.316;8.558;2023-04-24T05:02:36;2.90;;;2.70;;
44456;SDS011;30159;49.316;8.558;2023-04-24T05:05:05;3.03;;;2.73;;
44456;SDS011;30159;49.316;8.558;2023-04-24T05:07:32;2.47;;;2.27;;
44456;SDS011;30159;49.316;8.558;2023-04-24T05:09:58;2.87;;;2.57;;
44456;SDS011;30159;49.316;8.558;2023-04-24T05:12:25;2.17;;;2.07;;
44456;SDS011;30159;49.316;8.558;2023-04-24T05:14:52;3.30;;;2.10;;
44456;SDS011;30159;49.316;8.558;2023-04-24T05:17:18;2.50;;;2.27;;
44456;SDS011;30159;49.316;8.558;2023-04-24T05:19:45;2.33;;;2.13;;
44456;SDS011;30159;49.316;8.558;2023-04-24T05:22:14;1.93;;;1.73;;
44456;SDS011;30159;49.316;8.558;2023-04-24T05:24:42;2.13;;;1.80;;
44456;SDS011;30159;49.316;8.558;2023-04-24T05:27:09;2.30;;;2.10;;
44456;SDS011;30159;49.316;8.558;2023-04-24T05:29:35;2.60;;;2.40;;
44456;SDS011;30159;49.316;8.558;2023-04-24T05:32:02;2.07;;;1.90;;
44456;SDS011;30159;49.316;8.558;2023-04-24T05:34:28;2.07;;;1.97;;
44456;SDS011;30159;49.316;8.558;2023-04-24T05:36:55;2.87;;;2.67;;
44456;SDS011;30159;49.316;8.558;2023-04-24T05:39:23;2.57;;;2.37;;
44456;SDS011;30159;49.316;8.558;2023-04-24T05:41:50;3.03;;;2.80;;
44456;SDS011;30159;49.316;8.558;2023-04-24T05:44:16;3.23;;;3.00;;
44456;SDS011;30159;49.316;8.558;2023-04-24T05:46:43;3.00;;;2.80;;
44456;SDS011;30159;49.316;8.558;2023-04-24T05:49:09;3.90;;;3.47;;
44456;SDS011;30159;49.316;8.558;2023-04-24T05:51:36;2.67;;;2.47;;
44456;SDS011;30159;49.316;8.558;2023-04-24T05:54:04;4.27;;;3.40;;
44456;SDS011;30159;49.316;8.558;2023-04-24T05:56:32;2.57;;;2.37;;
44456;SDS011;30159;49.316;8.558;2023-04-24T05:58:59;2.00;;;1.90;;
44456;SDS011;30159;49.316;8.558;2023-04-24T06:01:25;2.70;;;1.73;;
44456;SDS011;30159;49.316;8.558;2023-04-24T06:03:52;2.20;;;2.03;;
44456;SDS011;30159;49.316;8.558;2023-04-24T06:06:18;2.03;;;1.93;;
44456;SDS011;30159;49.316;8.558;2023-04-24T06:08:45;2.23;;;2.03;;
44456;SDS011;30159;49.316;8.558;2023-04-24T06:11:11;2.00;;;1.90;;
44456;SDS011;30159;49.316;8.558;2023-04-24T06:13:39;1.97;;;1.87;;
44456;SDS011;30159;49.316;8.558;2023-04-24T06:16:06;3.30;;;2.10;;
44456;SDS011;30159;49.316;8.558;2023-04-24T06:18:32;3.57;;;2.20;;
44456;SDS011;30159;49.316;8.558;2023-04-24T06:20:59;1.90;;;1.80;;
44456;SDS011;30159;49.316;8.558;2023-04-24T06:23:26;2.70;;;2.50;;
44456;SDS011;30159;49.316;8.558;2023-04-24T06:25:52;4.83;;;1.97;;
44456;SDS011;30159;49.316;8.558;2023-04-24T06:28:19;1.93;;;1.73;;
44456;SDS011;30159;49.316;8.558;2023-04-24T06:30:47;2.60;;;1.83;;
44456;SDS011;30159;49.316;8.558;2023-04-24T06:33:13;2.20;;;2.10;;
44456;SDS011;30159;49.316;8.558;2023-04-24T06:35:40;2.07;;;1.87;;
44456;SDS011;30159;49.316;8.558;2023-04-24T06:38:06;1.90;;;1.80;;
44456;SDS011;30159;49.316;8.558;2023-04-24T06:40:33;2.40;;;2.23;;
44456;SDS011;30159;49.316;8.558;2023-04-24T06:42:59;2.07;;;1.97;;
44456;SDS011;30159;49.316;8.558;2023-04-24T06:45:27;2.30;;;2.10;;
44456;SDS011;30159;49.316;8.558;2023-04-24T06:47:55;2.60;;;2.40;;
44456;SDS011;30159;49.316;8.558;2023-04-24T06:50:22;2.03;;;1.93;;
44456;SDS011;30159;49.316;8.558;2023-04-24T06:52:50;2.43;;;2.07;;
44456;SDS011;30159;49.316;8.558;2023-04-24T06:55:16;1.90;;;1.80;;
44456;SDS011;30159;49.316;8.558;2023-04-24T06:57:43;1.97;;;1.87;;
44456;SDS011;30159;49.316;8.558;2023-04-24T07:00:10;1.80;;;1.70;;
44456;SDS011;30159;49.316;8.558;2023-04-24T07:02:38;1.93;;;1.83;;
44456;SDS011;30159;49.316;8.558;2023-04-24T07:05:06;2.27;;;2.17;;
44456;SDS011;30159;49.316;8.558;2023-04-24T07:07:33;2.67;;;2.00;;
44456;SDS011;30159;49.316;8.558;2023-04-24T07:10:03;2.90;;;1.90;;
44456;SDS011;30159;49.316;8.558;2023-04-24T07:12:30;2.10;;;1.80;;
44456;SDS011;30159;49.316;8.558;2023-04-24T07:14:57;2.80;;;1.90;;
44456;SDS011;30159;49.316;8.558;2023-04-24T07:17:23;2.13;;;2.03;;
44456;SDS011;30159;49.316;8.558;2023-04-24T07:19:50;1.40;;;1.30;;
44456;SDS011;30159;49.316;8.558;2023-04-24T07:22:18;1.83;;;1.73;;
44456;SDS011;30159;49.316;8.558;2023-04-24T07:24:44;1.60;;;1.50;;
44456;SDS011;30159;49.316;8.558;2023-04-24T07:27:11;2.07;;;1.53;;
44456;SDS011;30159;49.316;8.558;2023-04-24T07:29:39;1.90;;;1.80;;
44456;SDS011;30159;49.316;8.558;2023-04-24T07:32:06;1.60;;;1.50;;
44456;SDS011;30159;49.316;8.558;2023-04-24T07:34:34;1.90;;;1.80;;
44456;SDS011;30159;49.316;8.558;2023-04-24T07:37:00;1.63;;;1.53;;
44456;SDS011;30159;49.316;8.558;2023-04-24T07:39:29;1.73;;;1.63;;
44456;SDS011;30159;49.316;8.558;2023-04-24T07:41:55;2.90;;;1.80;;
44456;SDS011;30159;49.316;8.558;2023-04-24T07:44:23;1.63;;;1.53;;
44456;SDS011;30159;49.316;8.558;2023-04-24T07:46:50;4.73;;;2.07;;
44456;SDS011;30159;49.316;8.558;2023-04-24T07:49:16;2.43;;;2.20;;
44456;SDS011;30159;49.316;8.558;2023-04-24T07:51:43;1.93;;;1.83;;
44456;SDS011;30159;49.316;8.558;2023-04-24T07:54:10;2.00;;;1.80;;
44456;SDS011;30159;49.316;8.558;2023-04-24T07:56:38;1.80;;;1.70;;
44456;SDS011;30159;49.316;8.558;2023-04-24T07:59:06;2.80;;;1.97;;
44456;SDS011;30159;49.316;8.558;2023-04-24T08:01:33;2.23;;;2.13;;
44456;SDS011;30159;49.316;8.558;2023-04-24T08:03:59;1.90;;;1.80;;
44456;SDS011;30159;49.316;8.558;2023-04-24T08:06:26;2.17;;;1.97;;
44456;SDS011;30159;49.316;8.558;2023-04-24T08:08:55;2.27;;;1.70;;
44456;SDS011;30159;49.316;8.558;2023-04-24T08:11:21;2.10;;;1.90;;
44456;SDS011;30159;49.316;8.558;2023-04-24T08:13:49;2.27;;;1.50;;
44456;SDS011;30159;49.316;8.558;2023-04-24T08:16:16;1.40;;;1.30;;
44456;SDS011;30159;49.316;8.558;2023-04-24T08:18:42;1.70;;;1.60;;
44456;SDS011;30159;49.316;8.558;2023-04-24T08:21:09;1.40;;;1.30;;
44456;SDS011;30159;49.316;8.558;2023-04-24T08:23:37;1.93;;;1.40;;
44456;SDS011;30159;49.316;8.558;2023-04-24T08:26:04;1.37;;;1.27;;
44456;SDS011;30159;49.316;8.558;2023-04-24T08:28:32;1.30;;;1.20;;
44456;SDS011;30159;49.316;8.558;2023-04-24T08:31:00;1.27;;;1.17;;
44456;SDS011;30159;49.316;8.558;2023-04-24T08:33:26;1.20;;;1.10;;
44456;SDS011;30159;49.316;8.558;2023-04-24T08:35:59;1.10;;;1.00;;
44456;SDS011;30159;49.316;8.558;2023-04-24T08:38:25;2.30;;;1.10;;
44456;SDS011;30159;49.316;8.558;2023-04-24T08:40:52;1.20;;;1.10;;
44456;SDS011;30159;49.316;8.558;2023-04-24T08:43:20;2.90;;;1.40;;
44456;SDS011;30159;49.316;8.558;2023-04-24T08:45:47;1.40;;;1.27;;
44456;SDS011;30159;49.316;8.558;2023-04-24T08:48:16;1.87;;;1.47;;
44456;SDS011;30159;49.316;8.558;2023-04-24T08:50:43;1.83;;;1.30;;
44456;SDS011;30159;49.316;8.558;2023-04-24T08:53:10;1.40;;;1.30;;
44456;SDS011;30159;49.316;8.558;2023-04-24T08:55:37;1.70;;;1.13;;
44456;SDS011;30159;49.316;8.558;2023-04-24T08:58:04;1.30;;;1.20;;
44456;SDS011;30159;49.316;8.558;2023-04-24T09:00:30;2.37;;;1.33;;
44456;SDS011;30159;49.316;8.558;2023-04-24T09:03:00;1.37;;;1.27;;
44456;SDS011;30159;49.316;8.558;2023-04-24T09:05:29;1.70;;;1.60;;
44456;SDS011;30159;49.316;8.558;2023-04-24T09:07:56;1.10;;;1.00;;
44456;SDS011;30159;49.316;8.558;2023-04-24T09:10:23;1.27;;;1.10;;
44456;SDS011;30159;49.316;8.558;2023-04-24T09:12:51;1.20;;;1.10;;
44456;SDS011;30159;49.316;8.558;2023-04-24T09:15:18;1.60;;;1.17;;
44456;SDS011;30159;49.316;8.558;2023-04-24T09:17:45;2.40;;;1.40;;
44456;SDS011;30159;49.316;8.558;2023-04-24T09:20:12;1.95;;;1.70;;
44456;SDS011;30159;49.316;8.558;2023-04-24T09:22:40;1.40;;;1.30;;
44456;SDS011;30159;49.316;8.558;2023-04-24T09:25:09;1.50;;;1.40;;
44456;SDS011;30159;49.316;8.558;2023-04-24T09:27:37;1.20;;;1.10;;
44456;SDS011;30159;49.316;8.558;2023-04-24T09:30:08;1.50;;;1.40;;
44456;SDS011;30159;49.316;8.558;2023-04-24T09:32:35;1.30;;;1.20;;
44456;SDS011;30159;49.316;8.558;2023-04-24T09:35:05;1.43;;;1.33;;
44456;SDS011;30159;49.316;8.558;2023-04-24T09:37:35;1.27;;;1.17;;
44456;SDS011;30159;49.316;8.558;2023-04-24T09:40:10;1.40;;;1.30;;
44456;SDS011;30159;49.316;8.558;2023-04-24T09:42:38;1.83;;;1.40;;
44456;SDS011;30159;49.316;8.558;2023-04-24T09:45:08;1.93;;;1.53;;
44456;SDS011;30159;49.316;8.558;2023-04-24T09:47:36;1.57;;;1.40;;
44456;SDS011;30159;49.316;8.558;2023-04-24T09:50:08;2.30;;;1.40;;
44456;SDS011;30159;49.316;8.558;2023-04-24T09:52:37;1.57;;;1.47;;
44456;SDS011;30159;49.316;8.558;2023-04-24T09:55:11;1.27;;;1.17;;
44456;SDS011;30159;49.316;8.558;2023-04-24T09:57:52;1.30;;;1.20;;
44456;SDS011;30159;49.316;8.558;2023-04-24T10:00:23;2.20;;;1.40;;
44456;SDS011;30159;49.316;8.558;2023-04-24T10:02:54;2.00;;;1.40;;
44456;SDS011;30159;49.316;8.558;2023-04-24T10:05:23;1.60;;;1.50;;
44456;SDS011;30159;49.316;8.558;2023-04-24T10:07:50;1.50;;;1.40;;
44456;SDS011;30159;49.316;8.558;2023-04-24T10:10:18;1.97;;;1.87;;
44456;SDS011;30159;49.316;8.558;2023-04-24T10:12:45;2.37;;;2.17;;
44456;SDS011;30159;49.316;8.558;2023-04-24T10:15:12;1.73;;;1.63;;
44456;SDS011;30159;49.316;8.558;2023-04-24T10:17:40;3.53;;;1.80;;
44456;SDS011;30159;49.316;8.558;2023-04-24T10:20:07;2.00;;;1.80;;
44456;SDS011;30159;49.316;8.558;2023-04-24T10:22:34;1.80;;;1.70;;
44456;SDS011;30159;49.316;8.558;2023-04-24T10:25:03;1.80;;;1.50;;
44456;SDS011;30159;49.316;8.558;2023-04-24T10:27:33;1.80;;;1.70;;
44456;SDS011;30159;49.316;8.558;2023-04-24T10:30:01;2.00;;;1.67;;
44456;SDS011;30159;49.316;8.558;2023-04-24T10:32:28;1.50;;;1.40;;
44456;SDS011;30159;49.316;8.558;2023-04-24T10:34:55;2.40;;;1.70;;
44456;SDS011;30159;49.316;8.558;2023-04-24T10:37:21;1.60;;;1.40;;
44456;SDS011;30159;49.316;8.558;2023-04-24T10:39:49;2.10;;;2.00;;
44456;SDS011;30159;49.316;8.558;2023-04-24T10:42:19;2.00;;;1.90;;
44456;SDS011;30159;49.316;8.558;2023-04-24T10:44:48;2.30;;;1.80;;
44456;SDS011;30159;49.316;8.558;2023-04-24T10:47:15;2.20;;;2.10;;
44456;SDS011;30159;49.316;8.558;2023-04-24T10:49:41;2.23;;;1.80;;
44456;SDS011;30159;49.316;8.558;2023-04-24T10:52:08;2.10;;;2.00;;
44456;SDS011;30159;49.316;8.558;2023-04-24T10:54:36;2.20;;;2.03;;
44456;SDS011;30159;49.316;8.558;2023-04-24T10:57:27;2.20;;;2.00;;
44456;SDS011;30159;49.316;8.558;2023-04-24T11:02:45;1.70;;;1.60;;
44456;SDS011;30159;49.316;8.558;2023-04-24T11:05:15;2.03;;;1.93;;
44456;SDS011;30159;49.316;8.558;2023-04-24T11:10:38;2.20;;;2.00;;
44456;SDS011;30159;49.316;8.558;2023-04-24T11:13:06;2.07;;;1.97;;
44456;SDS011;30159;49.316;8.558;2023-04-24T11:15:34;2.07;;;1.97;;
44456;SDS011;30159;49.316;8.558;2023-04-24T11:18:01;1.90;;;1.80;;
44456;SDS011;30159;49.316;8.558;2023-04-24T11:20:28;2.07;;;1.50;;
44456;SDS011;30159;49.316;8.558;2023-04-24T11:22:54;2.10;;;1.90;;
44456;SDS011;30159;49.316;8.558;2023-04-24T11:25:22;4.77;;;2.00;;
44456;SDS011;30159;49.316;8.558;2023-04-24T11:27:50;2.03;;;1.93;;
44456;SDS011;30159;49.316;8.558;2023-04-24T11:30:29;2.43;;;2.23;;
44456;SDS011;30159;49.316;8.558;2023-04-24T11:32:59;3.20;;;2.90;;
44456;SDS011;30159;49.316;8.558;2023-04-24T11:35:28;2.00;;;1.90;;
44456;SDS011;30159;49.316;8.558;2023-04-24T11:37:55;3.67;;;2.27;;
44456;SDS011;30159;49.316;8.558;2023-04-24T11:40:23;3.70;;;1.97;;
44456;SDS011;30159;49.316;8.558;2023-04-24T11:42:51;3.00;;;2.77;;
44456;SDS011;30159;49.316;8.558;2023-04-24T11:45:21;1.80;;;1.70;;
44456;SDS011;30159;49.316;8.558;2023-04-24T11:47:50;2.47;;;2.27;;
44456;SDS011;30159;49.316;8.558;2023-04-24T11:50:18;3.77;;;1.67;;
44456;SDS011;30159;49.316;8.558;2023-04-24T11:52:48;2.23;;;1.57;;
44456;SDS011;30159;49.316;8.558;2023-04-24T11:55:25;4.10;;;1.93;;
44456;SDS011;30159;49.316;8.558;2023-04-24T11:57:53;2.43;;;2.23;;
44456;SDS011;30159;49.316;8.558;2023-04-24T12:00:23;2.10;;;1.83;;
44456;SDS011;30159;49.316;8.558;2023-04-24T12:02:51;4.83;;;2.10;;
44456;SDS011;30159;49.316;8.558;2023-04-24T12:05:30;2.30;;;1.73;;
44456;SDS011;30159;49.316;8.558;2023-04-24T12:07:56;7.13;;;2.50;;
44456;SDS011;30159;49.316;8.558;2023-04-24T12:10:24;2.27;;;2.07;;
44456;SDS011;30159;49.316;8.558;2023-04-24T12:12:51;2.47;;;2.27;;
44456;SDS011;30159;49.316;8.558;2023-04-24T12:15:19;7.63;;;2.00;;
44456;SDS011;30159;49.316;8.558;2023-04-24T12:17:46;3.60;;;2.17;;
44456;SDS011;30159;49.316;8.558;2023-04-24T12:20:14;2.40;;;2.20;;
44456;SDS011;30159;49.316;8.558;2023-04-24T12:22:46;2.53;;;2.33;;
44456;SDS011;30159;49.316;8.558;2023-04-24T12:25:13;2.40;;;2.20;;
44456;SDS011;30159;49.316;8.558;2023-04-24T12:27:40;2.63;;;2.30;;
44456;SDS011;30159;49.316;8.558;2023-04-24T12:30:10;3.10;;;2.00;;
44456;SDS011;30159;49.316;8.558;2023-04-24T12:32:40;2.10;;;2.00;;
44456;SDS011;30159;49.316;8.558;2023-04-24T12:35:07;4.30;;;2.27;;
44456;SDS011;30159;49.316;8.558;2023-04-24T12:37:35;3.67;;;1.70;;
44456;SDS011;30159;49.316;8.558;2023-04-24T12:40:03;1.87;;;1.77;;
44456;SDS011;30159;49.316;8.558;2023-04-24T12:42:32;3.40;;;2.23;;
44456;SDS011;30159;49.316;8.558;2023-04-24T12:45:00;1.70;;;1.60;;
44456;SDS011;30159;49.316;8.558;2023-04-24T12:47:29;1.97;;;1.80;;
44456;SDS011;30159;49.316;8.558;2023-04-24T12:49:56;3.93;;;2.03;;
44456;SDS011;30159;49.316;8.558;2023-04-24T12:52:23;1.87;;;1.77;;
44456;SDS011;30159;49.316;8.558;2023-04-24T12:54:51;2.37;;;2.17;;
44456;SDS011;30159;49.316;8.558;2023-04-24T12:57:20;2.57;;;2.00;;
44456;SDS011;30159;49.316;8.558;2023-04-24T12:59:47;5.90;;;2.40;;
44456;SDS011;30159;49.316;8.558;2023-04-24T13:02:14;2.53;;;2.33;;
44456;SDS011;30159;49.316;8.558;2023-04-24T13:04:43;2.03;;;1.93;;
44456;SDS011;30159;49.316;8.558;2023-04-24T13:07:11;4.23;;;2.27;;
44456;SDS011;30159;49.316;8.558;2023-04-24T13:09:38;3.50;;;2.30;;
44456;SDS011;30159;49.316;8.558;2023-04-24T13:12:05;2.53;;;2.33;;
44456;SDS011;30159;49.316;8.558;2023-04-24T13:14:34;3.93;;;2.13;;
44456;SDS011;30159;49.316;8.558;2023-04-24T13:17:01;2.17;;;2.07;;
44456;SDS011;30159;49.316;8.558;2023-04-24T13:19:27;2.80;;;2.60;;
44456;SDS011;30159;49.316;8.558;2023-04-24T13:21:55;2.80;;;2.23;;
44456;SDS011;30159;49.316;8.558;2023-04-24T13:24:24;3.50;;;2.23;;
44456;SDS011;30159;49.316;8.558;2023-04-24T13:26:51;2.40;;;2.20;;
44456;SDS011;30159;49.316;8.558;2023-04-24T13:29:17;2.10;;;1.90;;
44456;SDS011;30159;49.316;8.558;2023-04-24T13:31:46;2.40;;;2.20;;
44456;SDS011;30159;49.316;8.558;2023-04-24T13:34:14;2.70;;;2.50;;
44456;SDS011;30159;49.316;8.558;2023-04-24T13:36:40;2.40;;;2.20;;
44456;SDS011;30159;49.316;8.558;2023-04-24T13:39:07;3.80;;;2.63;;
44456;SDS011;30159;49.316;8.558;2023-04-24T13:41:33;2.27;;;1.73;;
44456;SDS011;30159;49.316;8.558;2023-04-24T13:44:01;2.20;;;1.90;;
44456;SDS011;30159;49.316;8.558;2023-04-24T13:46:27;2.80;;;2.03;;
44456;SDS011;30159;49.316;8.558;2023-04-24T13:48:56;2.30;;;2.10;;
44456;SDS011;30159;49.316;8.558;2023-04-24T13:51:23;5.60;;;2.47;;
44456;SDS011;30159;49.316;8.558;2023-04-24T13:53:52;3.40;;;2.10;;
44456;SDS011;30159;49.316;8.558;2023-04-24T13:56:18;2.27;;;2.07;;
44456;SDS011;30159;49.316;8.558;2023-04-24T13:58:45;2.30;;;2.20;;
44456;SDS011;30159;49.316;8.558;2023-04-24T14:01:12;1.70;;;1.57;;
44456;SDS011;30159;49.316;8.558;2023-04-24T14:03:38;3.43;;;1.80;;
44456;SDS011;30159;49.316;8.558;2023-04-24T14:06:07;1.80;;;1.70;;
44456;SDS011;30159;49.316;8.558;2023-04-24T14:08:34;2.27;;;2.17;;
44456;SDS011;30159;49.316;8.558;2023-04-24T14:11:00;2.43;;;2.00;;
44456;SDS011;30159;49.316;8.558;2023-04-24T14:13:27;2.20;;;2.10;;
44456;SDS011;30159;49.316;8.558;2023-04-24T14:15:54;1.93;;;1.77;;
44456;SDS011;30159;49.316;8.558;2023-04-24T14:18:21;1.80;;;1.70;;
44456;SDS011;30159;49.316;8.558;2023-04-24T14:20:47;2.97;;;2.00;;
44456;SDS011;30159;49.316;8.558;2023-04-24T14:23:15;2.13;;;1.83;;
44456;SDS011;30159;49.316;8.558;2023-04-24T14:25:41;1.83;;;1.73;;
44456;SDS011;30159;49.316;8.558;2023-04-24T14:28:08;2.07;;;1.70;;
44456;SDS011;30159;49.316;8.558;2023-04-24T14:30:35;2.07;;;1.97;;
44456;SDS011;30159;49.316;8.558;2023-04-24T14:33:02;2.13;;;1.83;;
44456;SDS011;30159;49.316;8.558;2023-04-24T14:35:29;3.50;;;2.27;;
44456;SDS011;30159;49.316;8.558;2023-04-24T14:37:56;2.57;;;2.37;;
44456;SDS011;30159;49.316;8.558;2023-04-24T14:40:24;2.40;;;2.20;;
44456;SDS011;30159;49.316;8.558;2023-04-24T14:42:50;2.67;;;2.47;;
44456;SDS011;30159;49.316;8.558;2023-04-24T14:45:17;2.30;;;2.10;;
44456;SDS011;30159;49.316;8.558;2023-04-24T14:47:44;2.20;;;2.00;;
44456;SDS011;30159;49.316;8.558;2023-04-24T14:50:11;5.40;;;2.40;;
44456;SDS011;30159;49.316;8.558;2023-04-24T14:52:37;3.93;;;2.47;;
44456;SDS011;30159;49.316;8.558;2023-04-24T14:55:04;1.80;;;1.70;;